createdAt,value
2024-05-09T00:02:14.716Z,101596.04
2024-05-09T00:05:42.866Z,101598.45
2024-05-09T00:09:09.793Z,101599.21
2024-05-09T00:12:36.373Z,101597.54
2024-05-09T00:16:15.698Z,101598.94
2024-05-09T00:19:43.676Z,101600.45
2024-05-09T00:23:12.397Z,101605.23
2024-05-09T00:26:38.306Z,101601.00
2024-05-09T00:30:07.055Z,101595.96
2024-05-09T00:33:33.749Z,101596.21
2024-05-09T00:37:00.864Z,101595.13
2024-05-09T00:40:37.712Z,101597.21
2024-05-09T00:44:08.497Z,101601.38
2024-05-09T00:47:35.128Z,101601.03
2024-05-09T00:51:02.691Z,101598.19
2024-05-09T00:54:29.395Z,101601.48
2024-05-09T00:57:56.588Z,101599.77
2024-05-09T01:01:25.048Z,101604.16
2024-05-09T01:04:53.580Z,101604.40
2024-05-09T01:08:20.554Z,101602.70
2024-05-09T01:11:54.391Z,101609.11
2024-05-09T01:15:21.070Z,101610.14
2024-05-09T01:18:47.596Z,101609.64
2024-05-09T01:22:14.340Z,101610.61
2024-05-09T01:25:40.905Z,101604.38
2024-05-09T01:29:20.080Z,101607.17
2024-05-09T02:04:37.857Z,101610.66
2024-05-09T02:08:04.506Z,101609.70
2024-05-09T02:11:31.243Z,101605.48
2024-05-09T02:14:58.205Z,101606.00
2024-05-09T02:18:24.669Z,101610.94
2024-05-09T02:21:51.157Z,101615.08
2024-05-09T02:25:18.023Z,101612.13
2024-05-09T02:28:44.451Z,101613.90
2024-05-09T02:32:11.006Z,101613.84
2024-05-09T02:35:37.605Z,101608.48
2024-05-09T02:39:04.290Z,101612.64
2024-05-09T02:42:31.326Z,101609.65
2024-05-09T02:45:57.814Z,101608.41
2024-05-09T02:49:24.431Z,101607.75
2024-05-09T02:52:51.316Z,101600.59
2024-05-09T02:56:17.837Z,101604.55
2024-05-09T02:59:45.177Z,101611.95
2024-05-09T03:03:14.455Z,101614.27
2024-05-09T03:06:44.092Z,101614.57
2024-05-09T03:10:18.338Z,101616.27
2024-05-09T03:13:51.514Z,101616.43
2024-05-09T03:17:18.615Z,101614.98
2024-05-09T03:20:45.348Z,101616.08
2024-05-09T03:24:13.053Z,101617.02
2024-05-09T03:27:41.027Z,101616.23
2024-05-09T03:31:10.381Z,101617.30
2024-05-09T03:34:40.695Z,101616.18
2024-05-09T03:38:07.259Z,101610.70
2024-05-09T03:41:33.917Z,101605.05
2024-05-09T03:45:00.884Z,101605.87
2024-05-09T03:48:27.823Z,101602.89
2024-05-09T03:51:54.293Z,101597.10
2024-05-09T03:55:20.678Z,101592.10
2024-05-09T03:58:47.490Z,101595.80
2024-05-09T04:02:14.155Z,101598.73
2024-05-09T04:05:42.333Z,101598.19
2024-05-09T04:09:09.975Z,101601.48
2024-05-09T04:12:36.575Z,101605.23
2024-05-09T04:16:03.048Z,101610.30
2024-05-09T04:19:30.048Z,101612.27
2024-05-09T04:22:56.520Z,101610.42
2024-05-09T04:26:23.109Z,101609.86
2024-05-09T04:29:49.620Z,101611.27
2024-05-09T04:33:16.475Z,101613.02
2024-05-09T04:36:44.666Z,101611.48
2024-05-09T04:40:24.000Z,101610.66
2024-05-09T04:43:57.796Z,101611.36
2024-05-09T04:47:24.419Z,101614.52
2024-05-09T04:50:51.289Z,101611.77
2024-05-09T04:54:26.267Z,101612.64
2024-05-09T04:58:01.564Z,101606.66
